sensor_id;sensor_type;location;lat;lon;timestamp;pressure;altitude;pressure_sealevel;temperature;humidity
16451;BME280;12243;42.708;23.310;2023-04-22T00:00:12;94713.38;;;10.20;95.34
16451;BME280;12243;42.708;23.310;2023-04-22T00:02:39;94707.88;;;10.13;96.20
16451;BME280;12243;42.708;23.310;2023-04-22T00:05:07;94705.38;;;10.02;96.77
16451;BME280;12243;42.708;23.310;2023-04-22T00:07:37;94703.44;;;9.94;96.57
16451;BME280;12243;42.708;23.310;2023-04-22T00:10:05;94709.16;;;9.88;96.53
16451;BME280;12243;42.708;23.310;2023-04-22T00:12:33;94703.53;;;9.83;96.91
16451;BME280;12243;42.708;23.310;2023-04-22T00:15:01;94718.19;;;9.84;96.89
16451;BME280;12243;42.708;23.310;2023-04-22T00:17:28;94710.53;;;9.92;95.89
16451;BME280;12243;42.708;23.310;2023-04-22T00:19:55;94712.75;;;9.97;96.29
16451;BME280;12243;42.708;23.310;2023-04-22T00:22:22;94711.94;;;9.96;96.35
16451;BME280;12243;42.708;23.310;2023-04-22T00:24:48;94710.81;;;9.89;96.42
16451;BME280;12243;42.708;23.310;2023-04-22T00:27:15;94710.03;;;9.98;97.39
16451;BME280;12243;42.708;23.310;2023-04-22T00:29:42;94710.13;;;9.87;97.39
16451;BME280;12243;42.708;23.310;2023-04-22T00:32:10;94717.19;;;9.75;98.49
16451;BME280;12243;42.708;23.310;2023-04-22T00:34:37;94725.56;;;9.79;98.36
16451;BME280;12243;42.708;23.310;2023-04-22T00:37:04;94716.31;;;9.65;98.80
16451;BME280;12243;42.708;23.310;2023-04-22T00:39:31;94720.91;;;9.73;99.14
16451;BME280;12243;42.708;23.310;2023-04-22T00:41:59;94714.16;;;9.70;98.66
16451;BME280;12243;42.708;23.310;2023-04-22T00:44:26;94712.91;;;9.65;98.58
16451;BME280;12243;42.708;23.310;2023-04-22T00:46:54;94713.69;;;9.56;98.85
16451;BME280;12243;42.708;23.310;2023-04-22T00:49:24;94711.16;;;9.44;99.70
16451;BME280;12243;42.708;23.310;2023-04-22T00:51:52;94714.78;;;9.32;100.00
16451;BME280;12243;42.708;23.310;2023-04-22T00:54:20;94713.81;;;9.33;100.00
16451;BME280;12243;42.708;23.310;2023-04-22T00:56:46;94719.09;;;9.22;100.00
16451;BME280;12243;42.708;23.310;2023-04-22T00:59:14;94726.25;;;9.09;100.00
16451;BME280;12243;42.708;23.310;2023-04-22T01:01:41;94722.91;;;8.97;100.00
16451;BME280;12243;42.708;23.310;2023-04-22T01:04:08;94724.94;;;8.93;100.00
16451;BME280;12243;42.708;23.310;2023-04-22T01:06:38;94728.16;;;8.86;100.00
16451;BME280;12243;42.708;23.310;2023-04-22T01:09:06;94728.75;;;8.78;100.00
16451;BME280;12243;42.708;23.310;2023-04-22T01:11:34;94725.97;;;8.70;100.00
16451;BME280;12243;42.708;23.310;2023-04-22T01:14:01;94729.75;;;8.66;100.00
16451;BME280;12243;42.708;23.310;2023-04-22T01:16:29;94723.13;;;8.73;100.00
16451;BME280;12243;42.708;23.310;2023-04-22T01:18:58;94729.75;;;8.66;100.00
16451;BME280;12243;42.708;23.310;2023-04-22T01:21:26;94722.31;;;8.72;100.00
16451;BME280;12243;42.708;23.310;2023-04-22T01:23:55;94722.41;;;8.71;100.00
16451;BME280;12243;42.708;23.310;2023-04-22T01:26:22;94731.19;;;8.58;100.00
16451;BME280;12243;42.708;23.310;2023-04-22T01:28:49;94734.75;;;8.46;100.00
16451;BME280;12243;42.708;23.310;2023-04-22T01:31:17;94732.63;;;8.51;100.00
16451;BME280;12243;42.708;23.310;2023-04-22T01:33:44;94734.28;;;8.52;100.00
16451;BME280;12243;42.708;23.310;2023-04-22T01:36:13;94723.66;;;8.55;100.00
16451;BME280;12243;42.708;23.310;2023-04-22T01:38:40;94729.28;;;8.61;100.00
16451;BME280;12243;42.708;23.310;2023-04-22T01:41:09;94718.59;;;8.75;100.00
16451;BME280;12243;42.708;23.310;2023-04-22T01:43:36;94721.69;;;8.80;100.00
16451;BME280;12243;42.708;23.310;2023-04-22T01:46:05;94724.75;;;8.74;100.00
16451;BME280;12243;42.708;23.310;2023-04-22T01:48:33;94722.31;;;8.61;100.00
16451;BME280;12243;42.708;23.310;2023-04-22T01:51:00;94720.56;;;8.62;100.00
16451;BME280;12243;42.708;23.310;2023-04-22T01:53:27;94717.72;;;8.65;100.00
16451;BME280;12243;42.708;23.310;2023-04-22T01:55:54;94720.97;;;8.78;100.00
16451;BME280;12243;42.708;23.310;2023-04-22T01:58:22;94718.59;;;8.75;100.00
16451;BME280;12243;42.708;23.310;2023-04-22T02:00:50;94721.91;;;8.77;100.00
16451;BME280;12243;42.708;23.310;2023-04-22T02:03:17;94718.41;;;8.67;100.00
16451;BME280;12243;42.708;23.310;2023-04-22T02:05:44;94725.38;;;8.66;100.00
16451;BME280;12243;42.708;23.310;2023-04-22T02:08:11;94718.56;;;8.65;100.00
16451;BME280;12243;42.708;23.310;2023-04-22T02:10:38;94722.59;;;8.58;100.00
16451;BME280;12243;42.708;23.310;2023-04-22T02:13:06;94724.56;;;8.66;100.00
16451;BME280;12243;42.708;23.310;2023-04-22T02:15:34;94723.81;;;8.75;100.00
16451;BME280;12243;42.708;23.310;2023-04-22T02:18:01;94721.44;;;8.83;99.43
16451;BME280;12243;42.708;23.310;2023-04-22T02:20:27;94718.84;;;8.83;98.90
16451;BME280;12243;42.708;23.310;2023-04-22T02:22:54;94724.56;;;8.66;99.63
16451;BME280;12243;42.708;23.310;2023-04-22T02:25:21;94720.09;;;8.56;100.00
16451;BME280;12243;42.708;23.310;2023-04-22T02:27:49;94715.06;;;8.55;100.00
16451;BME280;12243;42.708;23.310;2023-04-22T02:30:16;94721.31;;;8.52;100.00
16451;BME280;12243;42.708;23.310;2023-04-22T02:32:44;94723.41;;;8.58;100.00
16451;BME280;12243;42.708;23.310;2023-04-22T02:35:11;94726.69;;;8.61;100.00
16451;BME280;12243;42.708;23.310;2023-04-22T02:37:38;94726.22;;;8.67;100.00
16451;BME280;12243;42.708;23.310;2023-04-22T02:40:06;94725.25;;;8.68;100.00
16451;BME280;12243;42.708;23.310;2023-04-22T02:42:34;94732.69;;;8.72;100.00
16451;BME280;12243;42.708;23.310;2023-04-22T02:45:01;94732.31;;;8.77;99.98
16451;BME280;12243;42.708;23.310;2023-04-22T02:47:28;94739.38;;;8.86;99.35
16451;BME280;12243;42.708;23.310;2023-04-22T02:49:56;94735.41;;;8.92;99.06
16451;BME280;12243;42.708;23.310;2023-04-22T02:52:24;94742.41;;;8.91;98.81
16451;BME280;12243;42.708;23.310;2023-04-22T02:54:50;94730.22;;;8.92;98.44
16451;BME280;12243;42.708;23.310;2023-04-22T02:57:17;94723.72;;;8.97;98.77
16451;BME280;12243;42.708;23.310;2023-04-22T02:59:44;94736.78;;;9.07;98.24
16451;BME280;12243;42.708;23.310;2023-04-22T03:02:14;94735.97;;;9.06;98.34
16451;BME280;12243;42.708;23.310;2023-04-22T03:04:57;94731.84;;;9.04;98.15
16451;BME280;12243;42.708;23.310;2023-04-22T03:07:26;94735.69;;;9.10;97.94
16451;BME280;12243;42.708;23.310;2023-04-22T03:09:53;94743.22;;;9.13;97.91
16451;BME280;12243;42.708;23.310;2023-04-22T03:12:23;94746.28;;;9.18;97.19
16451;BME280;12243;42.708;23.310;2023-04-22T03:14:51;94736.41;;;9.12;97.12
16451;BME280;12243;42.708;23.310;2023-04-22T03:17:19;94742.56;;;9.11;97.70
16451;BME280;12243;42.708;23.310;2023-04-22T03:19:46;94739.94;;;9.11;97.83
16451;BME280;12243;42.708;23.310;2023-04-22T03:22:15;94739.63;;;9.04;97.65
16451;BME280;12243;42.708;23.310;2023-04-22T03:24:42;94742.16;;;9.15;96.93
16451;BME280;12243;42.708;23.310;2023-04-22T03:27:09;94751.28;;;9.10;96.89
16451;BME280;12243;42.708;23.310;2023-04-22T03:29:36;94755.28;;;9.14;97.33
16451;BME280;12243;42.708;23.310;2023-04-22T03:32:03;94748.06;;;8.96;97.41
16451;BME280;12243;42.708;23.310;2023-04-22T03:34:30;94749.75;;;8.86;98.37
16451;BME280;12243;42.708;23.310;2023-04-22T03:36:57;94750.25;;;8.80;99.00
16451;BME280;12243;42.708;23.310;2023-04-22T03:39:26;94753.66;;;8.80;99.57
16451;BME280;12243;42.708;23.310;2023-04-22T03:41:53;94760.13;;;8.86;99.63
16451;BME280;12243;42.708;23.310;2023-04-22T03:44:20;94759.88;;;8.89;99.96
16451;BME280;12243;42.708;23.310;2023-04-22T03:46:47;94761.63;;;8.89;99.32
16451;BME280;12243;42.708;23.310;2023-04-22T03:49:19;94765.53;;;8.94;98.58
16451;BME280;12243;42.708;23.310;2023-04-22T03:51:47;94763.31;;;8.90;98.94
16451;BME280;12243;42.708;23.310;2023-04-22T03:54:17;94768.75;;;8.87;99.85
16451;BME280;12243;42.708;23.310;2023-04-22T03:56:50;94763.88;;;8.93;99.15
16451;BME280;12243;42.708;23.310;2023-04-22T03:59:19;94769.31;;;8.90;99.42
16451;BME280;12243;42.708;23.310;2023-04-22T04:01:47;94770.22;;;9.00;99.89
16451;BME280;12243;42.708;23.310;2023-04-22T04:04:18;94774.94;;;9.06;99.61
16451;BME280;12243;42.708;23.310;2023-04-22T04:06:55;94775.94;;;9.15;99.26
16451;BME280;12243;42.708;23.310;2023-04-22T04:09:22;94773.66;;;9.22;99.12
16451;BME280;12243;42.708;23.310;2023-04-22T04:11:51;94779.69;;;9.43;97.71
16451;BME280;12243;42.708;23.310;2023-04-22T04:14:19;94775.81;;;9.59;97.89
16451;BME280;12243;42.708;23.310;2023-04-22T04:16:47;94781.44;;;9.85;97.03
16451;BME280;12243;42.708;23.310;2023-04-22T04:19:22;94780.94;;;10.00;95.79
16451;BME280;12243;42.708;23.310;2023-04-22T04:21:50;94786.09;;;10.12;94.77
16451;BME280;12243;42.708;23.310;2023-04-22T04:24:18;94784.25;;;10.33;93.55
16451;BME280;12243;42.708;23.310;2023-04-22T04:26:48;94787.19;;;10.59;92.08
16451;BME280;12243;42.708;23.310;2023-04-22T04:29:25;94789.16;;;10.77;90.43
16451;BME280;12243;42.708;23.310;2023-04-22T04:32:02;94803.44;;;10.92;88.66
16451;BME280;12243;42.708;23.310;2023-04-22T04:34:30;94794.13;;;10.99;87.23
16451;BME280;12243;42.708;23.310;2023-04-22T04:37:00;94794.13;;;11.09;88.21
16451;BME280;12243;42.708;23.310;2023-04-22T04:39:36;94800.16;;;11.38;87.41
16451;BME280;12243;42.708;23.310;2023-04-22T04:42:03;94794.94;;;11.48;85.02
16451;BME280;12243;42.708;23.310;2023-04-22T04:44:38;94808.19;;;11.74;83.16
16451;BME280;12243;42.708;23.310;2023-04-22T04:47:05;94803.94;;;11.83;83.38
16451;BME280;12243;42.708;23.310;2023-04-22T04:49:32;94805.44;;;11.95;83.40
16451;BME280;12243;42.708;23.310;2023-04-22T04:52:04;94803.97;;;12.20;81.06
16451;BME280;12243;42.708;23.310;2023-04-22T04:54:34;94816.97;;;12.39;79.43
16451;BME280;12243;42.708;23.310;2023-04-22T04:57:01;94826.81;;;12.55;80.27
16451;BME280;12243;42.708;23.310;2023-04-22T04:59:30;94817.47;;;12.80;79.26
16451;BME280;12243;42.708;23.310;2023-04-22T05:02:00;94821.59;;;13.01;78.01
16451;BME280;12243;42.708;23.310;2023-04-22T05:04:29;94825.06;;;13.19;76.45
16451;BME280;12243;42.708;23.310;2023-04-22T05:06:56;94819.06;;;13.09;76.36
16451;BME280;12243;42.708;23.310;2023-04-22T05:09:23;94814.03;;;13.25;75.17
16451;BME280;12243;42.708;23.310;2023-04-22T05:11:51;94825.25;;;13.36;74.56
16451;BME280;12243;42.708;23.310;2023-04-22T05:14:19;94823.00;;;13.41;73.92
16451;BME280;12243;42.708;23.310;2023-04-22T05:16:47;94827.97;;;13.52;73.54
16451;BME280;12243;42.708;23.310;2023-04-22T05:19:15;94830.75;;;13.50;72.83
16451;BME280;12243;42.708;23.310;2023-04-22T05:21:43;94832.13;;;13.37;73.44
16451;BME280;12243;42.708;23.310;2023-04-22T05:24:10;94836.13;;;13.49;72.46
16451;BME280;12243;42.708;23.310;2023-04-22T05:26:38;94825.97;;;13.46;72.73
16451;BME280;12243;42.708;23.310;2023-04-22T05:29:11;94840.81;;;13.63;73.13
16451;BME280;12243;42.708;23.310;2023-04-22T05:31:39;94831.03;;;13.65;71.60
16451;BME280;12243;42.708;23.310;2023-04-22T05:34:06;94837.31;;;13.72;70.66
16451;BME280;12243;42.708;23.310;2023-04-22T05:36:35;94832.31;;;13.61;71.48
16451;BME280;12243;42.708;23.310;2023-04-22T05:39:02;94835.91;;;13.60;71.19
16451;BME280;12243;42.708;23.310;2023-04-22T05:41:31;94827.75;;;13.63;71.50
16451;BME280;12243;42.708;23.310;2023-04-22T05:43:59;94836.50;;;13.98;71.61
16451;BME280;12243;42.708;23.310;2023-04-22T05:46:28;94834.56;;;14.26;69.56
16451;BME280;12243;42.708;23.310;2023-04-22T05:48:55;94826.44;;;14.37;69.14
16451;BME280;12243;42.708;23.310;2023-04-22T05:51:50;94836.97;;;14.71;68.06
16451;BME280;12243;42.708;23.310;2023-04-22T05:54:19;94825.56;;;14.89;67.03
16451;BME280;12243;42.708;23.310;2023-04-22T05:56:47;94826.88;;;14.93;67.13
16451;BME280;12243;42.708;23.310;2023-04-22T05:59:14;94832.81;;;15.03;66.60
16451;BME280;12243;42.708;23.310;2023-04-22T06:01:44;94829.19;;;14.96;66.51
16451;BME280;12243;42.708;23.310;2023-04-22T06:04:15;94830.81;;;15.05;66.03
16451;BME280;12243;42.708;23.310;2023-04-22T06:06:43;94835.44;;;15.03;66.59
16451;BME280;12243;42.708;23.310;2023-04-22T06:09:13;94836.75;;;15.15;66.46
16451;BME280;12243;42.708;23.310;2023-04-22T06:11:41;94828.91;;;15.23;66.12
16451;BME280;12243;42.708;23.310;2023-04-22T06:14:08;94831.56;;;15.32;66.31
16451;BME280;12243;42.708;23.310;2023-04-22T06:16:35;94823.69;;;15.64;64.83
16451;BME280;12243;42.708;23.310;2023-04-22T06:19:03;94827.66;;;15.68;65.16
16451;BME280;12243;42.708;23.310;2023-04-22T06:21:30;94829.13;;;15.79;65.68
16451;BME280;12243;42.708;23.310;2023-04-22T06:23:58;94830.94;;;16.03;65.83
16451;BME280;12243;42.708;23.310;2023-04-22T06:26:27;94826.72;;;16.58;63.94
16451;BME280;12243;42.708;23.310;2023-04-22T06:28:55;94824.25;;;16.56;62.42
16451;BME280;12243;42.708;23.310;2023-04-22T06:31:23;94829.81;;;16.61;61.88
16451;BME280;12243;42.708;23.310;2023-04-22T06:33:50;94831.00;;;16.51;62.67
16451;BME280;12243;42.708;23.310;2023-04-22T06:36:18;94828.56;;;16.41;62.80
16451;BME280;12243;42.708;23.310;2023-04-22T06:38:51;94835.44;;;16.42;63.55
16451;BME280;12243;42.708;23.310;2023-04-22T06:41:59;94829.97;;;16.68;63.23
16451;BME280;12243;42.708;23.310;2023-04-22T06:44:44;94828.75;;;16.87;61.62
16451;BME280;12243;42.708;23.310;2023-04-22T06:47:21;94824.56;;;17.09;61.79
16451;BME280;12243;42.708;23.310;2023-04-22T06:49:57;94827.81;;;17.42;60.69
16451;BME280;12243;42.708;23.310;2023-04-22T06:52:54;94835.75;;;17.57;60.83
16451;BME280;12243;42.708;23.310;2023-04-22T06:55:22;94834.44;;;17.61;60.13
16451;BME280;12243;42.708;23.310;2023-04-22T06:57:51;94836.03;;;17.39;60.35
16451;BME280;12243;42.708;23.310;2023-04-22T07:00:18;94834.69;;;17.43;60.92
16451;BME280;12243;42.708;23.310;2023-04-22T07:02:45;94829.31;;;17.59;61.54
16451;BME280;12243;42.708;23.310;2023-04-22T07:05:12;94840.53;;;17.84;60.33
16451;BME280;12243;42.708;23.310;2023-04-22T07:07:39;94840.97;;;17.88;60.08
16451;BME280;12243;42.708;23.310;2023-04-22T07:10:11;94835.66;;;17.96;59.11
16451;BME280;12243;42.708;23.310;2023-04-22T07:12:45;94836.81;;;17.71;60.45
16451;BME280;12243;42.708;23.310;2023-04-22T07:15:13;94836.00;;;17.47;61.22
16451;BME280;12243;42.708;23.310;2023-04-22T07:17:40;94835.97;;;17.78;61.29
16451;BME280;12243;42.708;23.310;2023-04-22T07:20:08;94836.06;;;18.23;59.95
16451;BME280;12243;42.708;23.310;2023-04-22T07:22:35;94831.91;;;18.28;58.23
16451;BME280;12243;42.708;23.310;2023-04-22T07:25:02;94835.50;;;18.13;59.06
16451;BME280;12243;42.708;23.310;2023-04-22T07:27:31;94839.16;;;18.12;59.20
16451;BME280;12243;42.708;23.310;2023-04-22T07:29:58;94838.56;;;18.39;58.41
16451;BME280;12243;42.708;23.310;2023-04-22T07:32:26;94836.00;;;18.61;56.94
16451;BME280;12243;42.708;23.310;2023-04-22T07:34:53;94832.28;;;18.40;57.74
16451;BME280;12243;42.708;23.310;2023-04-22T07:37:20;94839.19;;;18.41;58.03
16451;BME280;12243;42.708;23.310;2023-04-22T07:39:47;94836.75;;;18.69;58.41
16451;BME280;12243;42.708;23.310;2023-04-22T07:42:14;94835.75;;;18.55;58.30
16451;BME280;12243;42.708;23.310;2023-04-22T07:44:41;94834.94;;;18.55;57.65
16451;BME280;12243;42.708;23.310;2023-04-22T07:47:07;94839.56;;;18.38;57.59
16451;BME280;12243;42.708;23.310;2023-04-22T07:49:36;94830.09;;;18.29;58.23
16451;BME280;12243;42.708;23.310;2023-04-22T07:52:03;94831.72;;;18.30;58.04
16451;BME280;12243;42.708;23.310;2023-04-22T07:54:30;94833.00;;;18.64;57.18
16451;BME280;12243;42.708;23.310;2023-04-22T07:56:57;94830.41;;;18.78;56.49
16451;BME280;12243;42.708;23.310;2023-04-22T07:59:24;94827.59;;;18.80;55.26
16451;BME280;12243;42.708;23.310;2023-04-22T08:01:50;94827.00;;;18.70;55.16
16451;BME280;12243;42.708;23.310;2023-04-22T08:04:21;94831.47;;;18.69;55.30
16451;BME280;12243;42.708;23.310;2023-04-22T08:06:50;94834.03;;;18.77;55.30
16451;BME280;12243;42.708;23.310;2023-04-22T08:09:16;94825.09;;;18.64;54.57
16451;BME280;12243;42.708;23.310;2023-04-22T08:11:43;94826.78;;;18.27;54.20
16451;BME280;12243;42.708;23.310;2023-04-22T08:14:10;94825.53;;;18.23;54.25
16451;BME280;12243;42.708;23.310;2023-04-22T08:16:38;94815.09;;;18.44;53.68
16451;BME280;12243;42.708;23.310;2023-04-22T08:19:05;94813.38;;;18.51;54.35
16451;BME280;12243;42.708;23.310;2023-04-22T08:21:32;94816.28;;;18.86;53.35
16451;BME280;12243;42.708;23.310;2023-04-22T08:24:03;94808.72;;;19.34;52.16
16451;BME280;12243;42.708;23.310;2023-04-22T08:26:30;94804.75;;;19.81;51.45
16451;BME280;12243;42.708;23.310;2023-04-22T08:28:57;94811.09;;;20.15;49.77
16451;BME280;12243;42.708;23.310;2023-04-22T08:31:24;94810.28;;;20.14;48.83
16451;BME280;12243;42.708;23.310;2023-04-22T08:33:51;94809.53;;;20.20;48.15
16451;BME280;12243;42.708;23.310;2023-04-22T08:36:17;94792.94;;;20.33;48.21
16451;BME280;12243;42.708;23.310;2023-04-22T08:38:47;94794.81;;;20.74;47.11
16451;BME280;12243;42.708;23.310;2023-04-22T08:41:16;94782.25;;;20.89;45.71
16451;BME280;12243;42.708;23.310;2023-04-22T08:43:45;94785.69;;;20.83;46.08
16451;BME280;12243;42.708;23.310;2023-04-22T08:46:12;94784.31;;;20.94;45.08
16451;BME280;12243;42.708;23.310;2023-04-22T08:48:40;94785.41;;;20.65;45.30
16451;BME280;12243;42.708;23.310;2023-04-22T08:51:07;94786.50;;;20.49;45.47
16451;BME280;12243;42.708;23.310;2023-04-22T08:53:34;94781.66;;;20.53;45.32
16451;BME280;12243;42.708;23.310;2023-04-22T08:56:01;94784.94;;;20.55;44.56
16451;BME280;12243;42.708;23.310;2023-04-22T08:58:30;94775.22;;;20.62;44.75
16451;BME280;12243;42.708;23.310;2023-04-22T09:00:57;94772.09;;;20.93;44.47
16451;BME280;12243;42.708;23.310;2023-04-22T09:03:25;94776.09;;;20.76;44.10
16451;BME280;12243;42.708;23.310;2023-04-22T09:05:54;94777.56;;;20.91;43.89
16451;BME280;12243;42.708;23.310;2023-04-22T09:08:21;94774.25;;;21.24;44.14
16451;BME280;12243;42.708;23.310;2023-04-22T09:10:48;94779.63;;;21.57;43.06
16451;BME280;12243;42.708;23.310;2023-04-22T09:13:15;94773.13;;;21.80;42.11
16451;BME280;12243;42.708;23.310;2023-04-22T09:15:44;94769.03;;;22.30;41.34
16451;BME280;12243;42.708;23.310;2023-04-22T09:18:15;94774.28;;;22.70;40.10
16451;BME280;12243;42.708;23.310;2023-04-22T09:20:42;94765.03;;;22.73;39.81
16451;BME280;12243;42.708;23.310;2023-04-22T09:23:11;94769.94;;;22.76;39.36
16451;BME280;12243;42.708;23.310;2023-04-22T09:25:39;94761.69;;;22.06;40.46
16451;BME280;12243;42.708;23.310;2023-04-22T09:28:10;94759.25;;;22.04;40.55
16451;BME280;12243;42.708;23.310;2023-04-22T09:30:37;94754.34;;;22.01;40.26
16451;BME280;12243;42.708;23.310;2023-04-22T09:33:06;94761.69;;;22.06;39.77
16451;BME280;12243;42.708;23.310;2023-04-22T09:35:34;94751.88;;;22.13;39.40
16451;BME280;12243;42.708;23.310;2023-04-22T09:38:03;94754.78;;;22.25;37.93
16451;BME280;12243;42.708;23.310;2023-04-22T09:40:31;94748.84;;;22.16;37.59
16451;BME280;12243;42.708;23.310;2023-04-22T09:43:00;94752.13;;;22.18;37.73
16451;BME280;12243;42.708;23.310;2023-04-22T09:45:29;94750.59;;;22.62;37.58
16451;BME280;12243;42.708;23.310;2023-04-22T09:47:59;94748.16;;;22.54;38.64
16451;BME280;12243;42.708;23.310;2023-04-22T09:50:28;94748.63;;;21.45;40.53
16451;BME280;12243;42.708;23.310;2023-04-22T09:52:58;94747.66;;;20.98;38.57
16451;BME280;12243;42.708;23.310;2023-04-22T09:55:26;94743.06;;;20.65;38.81
16451;BME280;12243;42.708;23.310;2023-04-22T09:57:54;94755.34;;;20.44;39.98
16451;BME280;12243;42.708;23.310;2023-04-22T10:00:27;94754.69;;;20.36;39.25
16451;BME280;12243;42.708;23.310;2023-04-22T10:02:54;94753.94;;;20.49;38.84
16451;BME280;12243;42.708;23.310;2023-04-22T10:05:21;94744.13;;;20.42;38.92
16451;BME280;12243;42.708;23.310;2023-04-22T10:07:51;94735.97;;;20.37;37.12
16451;BME280;12243;42.708;23.310;2023-04-22T10:10:18;94738.94;;;19.65;38.92
16451;BME280;12243;42.708;23.310;2023-04-22T10:12:46;94738.69;;;19.60;39.36
16451;BME280;12243;42.708;23.310;2023-04-22T10:15:13;94746.69;;;19.94;37.34
16451;BME280;12243;42.708;23.310;2023-04-22T10:17:41;94742.03;;;20.31;36.56
16451;BME280;12243;42.708;23.310;2023-04-22T10:20:12;94744.91;;;20.30;35.52
16451;BME280;12243;42.708;23.310;2023-04-22T10:22:42;94730.25;;;20.34;37.43
16451;BME280;12243;42.708;23.310;2023-04-22T10:25:20;94733.59;;;20.14;40.79
16451;BME280;12243;42.708;23.310;2023-04-22T10:27:51;94710.75;;;19.72;40.59
16451;BME280;12243;42.708;23.310;2023-04-22T10:30:25;94727.09;;;19.82;40.17
16451;BME280;12243;42.708;23.310;2023-04-22T10:32:53;94712.78;;;19.77;38.68
16451;BME280;12243;42.708;23.310;2023-04-22T10:35:26;94714.19;;;20.01;38.60
16451;BME280;12243;42.708;23.310;2023-04-22T10:37:53;94711.25;;;20.52;38.05
16451;BME280;12243;42.708;23.310;2023-04-22T10:40:22;94706.06;;;20.78;37.64
16451;BME280;12243;42.708;23.310;2023-04-22T10:42:50;94707.81;;;20.58;38.56
16451;BME280;12243;42.708;23.310;2023-04-22T10:45:17;94708.09;;;20.76;36.75
16451;BME280;12243;42.708;23.310;2023-04-22T10:47:45;94717.94;;;21.09;35.01
16451;BME280;12243;42.708;23.310;2023-04-22T10:50:17;94705.53;;;21.03;35.09
16451;BME280;12243;42.708;23.310;2023-04-22T10:52:48;94706.53;;;21.02;35.63
16451;BME280;12243;42.708;23.310;2023-04-22T10:55:16;94705.66;;;20.81;34.98
16451;BME280;12243;42.708;23.310;2023-04-22T10:57:46;94704.84;;;20.81;35.36
16451;BME280;12243;42.708;23.310;2023-04-22T11:00:28;94703.84;;;20.82;35.37
16451;BME280;12243;42.708;23.310;2023-04-22T11:03:13;94701.97;;;20.34;35.45
16451;BME280;12243;42.708;23.310;2023-04-22T11:05:41;94700.84;;;20.50;36.23
16451;BME280;12243;42.708;23.310;2023-04-22T11:08:13;94706.53;;;21.02;36.50
16451;BME280;12243;42.708;23.310;2023-04-22T11:10:43;94707.44;;;21.35;35.74
16451;BME280;12243;42.708;23.310;2023-04-22T11:13:14;94708.59;;;21.06;36.82
16451;BME280;12243;42.708;23.310;2023-04-22T11:15:42;94710.94;;;20.81;36.96
16451;BME280;12243;42.708;23.310;2023-04-22T11:18:13;94717.69;;;20.42;38.09
16451;BME280;12243;42.708;23.310;2023-04-22T11:20:40;94721.59;;;20.12;41.54
16451;BME280;12243;42.708;23.310;2023-04-22T11:23:07;94727.47;;;19.58;41.84
16451;BME280;12243;42.708;23.310;2023-04-22T11:25:34;94726.09;;;19.40;43.62
16451;BME280;12243;42.708;23.310;2023-04-22T11:28:01;94725.59;;;19.09;44.88
16451;BME280;12243;42.708;23.310;2023-04-22T11:30:29;94761.13;;;18.91;46.10
16451;BME280;12243;42.708;23.310;2023-04-22T11:32:58;94744.78;;;18.81;45.92
16451;BME280;12243;42.708;23.310;2023-04-22T11:35:28;94736.22;;;18.79;45.96
16451;BME280;12243;42.708;23.310;2023-04-22T11:37:58;94749.81;;;18.76;46.23
16451;BME280;12243;42.708;23.310;2023-04-22T11:40:27;94747.56;;;18.94;45.18
16451;BME280;12243;42.708;23.310;2023-04-22T11:42:55;94754.22;;;18.90;46.27
16451;BME280;12243;42.708;23.310;2023-04-22T11:45:23;94754.34;;;19.03;45.84
16451;BME280;12243;42.708;23.310;2023-04-22T11:47:52;94760.13;;;18.92;46.54
16451;BME280;12243;42.708;23.310;2023-04-22T11:50:22;94762.97;;;18.61;48.42
16451;BME280;12243;42.708;23.310;2023-04-22T11:52:51;94763.38;;;18.73;47.92
16451;BME280;12243;42.708;23.310;2023-04-22T11:55:22;94776.28;;;19.19;46.83
16451;BME280;12243;42.708;23.310;2023-04-22T11:57:53;94764.47;;;19.58;46.33
16451;BME280;12243;42.708;23.310;2023-04-22T12:00:22;94767.69;;;19.32;46.23
16451;BME280;12243;42.708;23.310;2023-04-22T12:02:58;94768.13;;;19.35;45.62
16451;BME280;12243;42.708;23.310;2023-04-22T12:05:36;94766.38;;;19.64;46.29
16451;BME280;12243;42.708;23.310;2023-04-22T12:08:06;94775.63;;;19.17;47.05
16451;BME280;12243;42.708;23.310;2023-04-22T12:10:37;94780.47;;;18.77;49.41
16451;BME280;12243;42.708;23.310;2023-04-22T12:13:05;94785.13;;;18.96;48.53
16451;BME280;12243;42.708;23.310;2023-04-22T12:15:40;94787.31;;;19.08;48.07
16451;BME280;12243;42.708;23.310;2023-04-22T12:18:09;94784.84;;;19.42;46.78
16451;BME280;12243;42.708;23.310;2023-04-22T12:20:37;94774.91;;;19.66;46.16
16451;BME280;12243;42.708;23.310;2023-04-22T12:23:10;94767.75;;;19.81;45.94
16451;BME280;12243;42.708;23.310;2023-04-22T12:25:37;94769.38;;;19.82;46.79
16451;BME280;12243;42.708;23.310;2023-04-22T12:28:04;94773.75;;;19.96;45.12
16451;BME280;12243;42.708;23.310;2023-04-22T12:30:31;94760.69;;;20.16;45.14
16451;BME280;12243;42.708;23.310;2023-04-22T12:32:58;94763.66;;;19.79;44.99
16451;BME280;12243;42.708;23.310;2023-04-22T12:35:27;94768.78;;;20.15;45.36
16451;BME280;12243;42.708;23.310;2023-04-22T12:37:55;94779.56;;;19.85;46.30
16451;BME280;12243;42.708;23.310;2023-04-22T12:40:22;94769.94;;;19.56;47.20
16451;BME280;12243;42.708;23.310;2023-04-22T12:42:49;94765.66;;;19.77;46.98
16451;BME280;12243;42.708;23.310;2023-04-22T12:45:16;94761.88;;;19.43;47.64
16451;BME280;12243;42.708;23.310;2023-04-22T12:47:42;94770.84;;;19.27;47.13
16451;BME280;12243;42.708;23.310;2023-04-22T12:50:11;94765.84;;;19.32;46.79
16451;BME280;12243;42.708;23.310;2023-04-22T12:52:39;94759.91;;;19.51;47.24
16451;BME280;12243;42.708;23.310;2023-04-22T12:55:07;94761.22;;;19.77;45.91
16451;BME280;12243;42.708;23.310;2023-04-22T12:57:34;94752.31;;;19.42;47.29
16451;BME280;12243;42.708;23.310;2023-04-22T13:00:01;94749.75;;;19.70;47.28